Temp: 14.8°C   Hum: 79%
  Wind: 0.9mph   Dir: SW (233°)
  Rain: 0.6mm Rate: 0.0mm/hr
  Pressure: 1017.7mb

Historic data

Bath Spa Weather Station Historical Data
Daily Summary for January 17, 2022 Units:  English    Metric   Both
Daily Weekly Monthly Yearly Custom
  High: Low: Average:
Temperature: 46.7 °F 29.8 °F 36 °F
Dew Point: 41.1 °F 28 °F 33 °F
Humidity: 94% 79.4% 89%
Wind Speed: 4.5mph 0mph 0.5mph
Wind Gust: 7mph - -
Wind- - South
Pressure: 30.74 in 30.61 in -
Precipitation: 0.00 in    
Historical Graphs
 
 
Tabular Data for January 17, 2022
Time Temperature Dew Point Pressure Wind Wind Speed Wind Gust Humidity Rainfall Rate (Hourly) solar
00:09 35.9 °F 32.7 °F 30.61 in NNE 1.7 mph 3 mph 88.3% 0.00 in 0 W/m2
00:14 35.6 °F 32.7 °F 30.62 in NNE 2 mph 3 mph 89% 0.00 in 0 W/m2
00:19 35.4 °F 32.5 °F 30.62 in NNE 0.9 mph 2 mph 89% 0.00 in 0 W/m2
00:24 35.2 °F 32.4 °F 30.62 in Calm   1 mph 89% 0.00 in 0 W/m2
00:29 35 °F 32.2 °F 30.62 in NNE 0.4 mph 2 mph 89% 0.00 in 0 W/m2
00:34 34.7 °F 31.8 °F 30.62 in Calm     89% 0.00 in 0 W/m2
00:39 34.5 °F 31.6 °F 30.62 in Calm     89% 0.00 in 0 W/m2
00:44 34.5 °F 31.6 °F 30.62 in NNE 0.8 mph 2 mph 89% 0.00 in 0 W/m2
00:49 34.6 °F 31.9 °F 30.62 in Calm   1 mph 90% 0.00 in 0 W/m2
00:54 34.5 °F 31.8 °F 30.62 in Calm     90% 0.00 in 0 W/m2
00:59 34.1 °F 31.4 °F 30.62 in Calm     90% 0.00 in 0 W/m2
01:04 34 °F 31.3 °F 30.62 in Calm     90% 0.00 in 0 W/m2
01:09 34 °F 31.3 °F 30.62 in Calm     90% 0.00 in 0 W/m2
01:14 34 °F 31.3 °F 30.62 in Calm     90% 0.00 in 0 W/m2
01:19 33.7 °F 31 °F 30.62 in Calm     90% 0.00 in 0 W/m2
01:24 33.6 °F 30.9 °F 30.62 in Calm     90% 0.00 in 0 W/m2
01:29 33.6 °F 30.9 °F 30.63 in Calm     90% 0.00 in 0 W/m2
01:34 33.6 °F 30.9 °F 30.62 in NNE 0.2 mph 1 mph 90% 0.00 in 0 W/m2
01:39 33.4 °F 30.8 °F 30.63 in Calm     90.2% 0.00 in 0 W/m2
01:44 33.4 °F 31.1 °F 30.63 in Calm     91% 0.00 in 0 W/m2
01:49 33.3 °F 30.9 °F 30.63 in Calm     91% 0.00 in 0 W/m2
01:54 33.4 °F 31.1 °F 30.63 in Calm     91% 0.00 in 0 W/m2
01:59 33.4 °F 31.1 °F 30.63 in Calm     91% 0.00 in 0 W/m2
02:04 33.4 °F 31.1 °F 30.63 in Calm     91% 0.00 in 0 W/m2
02:09 33.3 °F 30.9 °F 30.63 in Calm     91% 0.00 in 0 W/m2
02:14 33.2 °F 30.8 °F 30.63 in Calm     91% 0.00 in 0 W/m2
02:19 33 °F 30.7 °F 30.63 in Calm     91% 0.00 in 0 W/m2
02:24 33.1 °F 30.7 °F 30.63 in Calm     91% 0.00 in 0 W/m2
02:29 33 °F 30.6 °F 30.63 in Calm     91% 0.00 in 0 W/m2
02:34 32.5 °F 30.2 °F 30.63 in Calm     91% 0.00 in 0 W/m2
02:39 32.5 °F 30.2 °F 30.63 in Calm     91% 0.00 in 0 W/m2
02:44 32.5 °F 30.2 °F 30.63 in Calm     91% 0.00 in 0 W/m2
02:49 32.5 °F 30.4 °F 30.63 in Calm     91.4% 0.00 in 0 W/m2
02:54 32.5 °F 30.6 °F 30.63 in Calm     92% 0.00 in 0 W/m2
02:59 32.1 °F 29.8 °F 30.63 in Calm     91.2% 0.00 in 0 W/m2
03:04 32 °F 30 °F 30.64 in Calm     92% 0.00 in 0 W/m2
03:09 32.1 °F 30.1 °F 30.64 in Calm     92% 0.00 in 0 W/m2
03:14 32.1 °F 30.1 °F 30.64 in Calm     92% 0.00 in 0 W/m2
03:19 31.9 °F 29.9 °F 30.64 in Calm     92% 0.00 in 0 W/m2
03:24 31.9 °F 29.9 °F 30.64 in Calm     92% 0.00 in 0 W/m2
03:29 31.8 °F 29.8 °F 30.64 in Calm     92% 0.00 in 0 W/m2
03:34 31.6 °F 29.6 °F 30.64 in Calm   1 mph 92% 0.00 in 0 W/m2
03:39 31.5 °F 29.6 °F 30.64 in NNE 2 mph 3 mph 92% 0.00 in 0 W/m2
03:44 31.7 °F 29.8 °F 30.64 in NNE 0.4 mph 3 mph 92% 0.00 in 0 W/m2
03:49 31.6 °F 29.7 °F 30.65 in NNE 0.7 mph 2 mph 92% 0.00 in 0 W/m2
03:54 31.5 °F 29.5 °F 30.65 in Calm   1 mph 92% 0.00 in 0 W/m2
03:59 31 °F 29 °F 30.65 in NNE 0.5 mph 2 mph 92% 0.00 in 0 W/m2
04:04 30.9 °F 28.9 °F 30.65 in NNE 0.4 mph 2 mph 92% 0.00 in 0 W/m2
04:09 31 °F 29 °F 30.65 in Calm   1 mph 92% 0.00 in 0 W/m2
04:14 31.1 °F 29.1 °F 30.65 in Calm     92% 0.00 in 0 W/m2
04:19 31.1 °F 29.1 °F 30.65 in NNE 0.5 mph 2 mph 92% 0.00 in 0 W/m2
04:24 31.1 °F 29.1 °F 30.65 in NNE 0.2 mph 2 mph 92% 0.00 in 0 W/m2
04:29 30.9 °F 28.9 °F 30.65 in Calm     92% 0.00 in 0 W/m2
04:34 30.9 °F 28.9 °F 30.66 in Calm   1 mph 92% 0.00 in 0 W/m2
04:39 30.9 °F 29.1 °F 30.66 in Calm     92.8% 0.00 in 0 W/m2
04:44 30.9 °F 29.1 °F 30.66 in Calm     93% 0.00 in 0 W/m2
04:49 30.9 °F 29.1 °F 30.65 in NNE 0.2 mph 2 mph 93% 0.00 in 0 W/m2
04:54 30.9 °F 29.1 °F 30.65 in Calm     93% 0.00 in 0 W/m2
04:59 30.7 °F 28.9 °F 30.65 in Calm     92.4% 0.00 in 0 W/m2
05:04 30.7 °F 28.9 °F 30.65 in Calm     92.6% 0.00 in 0 W/m2
05:09 30.7 °F 28.9 °F 30.65 in Calm     93% 0.00 in 0 W/m2
05:14 30.7 °F 28.9 °F 30.65 in Calm     93% 0.00 in 0 W/m2
05:18 30.7 °F 28.9 °F 30.65 in Calm     93% 0.00 in 0 W/m2
05:24 30.6 °F 28.8 °F 30.65 in Calm     93% 0.00 in 0 W/m2
05:29 30.5 °F 28.7 °F 30.65 in Calm     93% 0.00 in 0 W/m2
05:34 30.6 °F 28.8 °F 30.65 in NNE 0.8 mph 2 mph 93% 0.00 in 0 W/m2
05:39 30.6 °F 28.8 °F 30.65 in Calm   2 mph 93% 0.00 in 0 W/m2
05:44 30.6 °F 28.8 °F 30.65 in Calm     93% 0.00 in 0 W/m2
05:49 30.7 °F 28.9 °F 30.65 in Calm     93% 0.00 in 0 W/m2
05:54 30.6 °F 28.8 °F 30.66 in Calm     93% 0.00 in 0 W/m2
05:59 30.5 °F 28.7 °F 30.66 in Calm     93% 0.00 in 0 W/m2
06:04 30.5 °F 28.7 °F 30.66 in Calm     93% 0.00 in 0 W/m2
06:09 30.5 °F 28.7 °F 30.66 in Calm     93% 0.00 in 0 W/m2
06:14 30.3 °F 28.5 °F 30.66 in Calm     93% 0.00 in 0 W/m2
06:19 30.2 °F 28.4 °F 30.66 in Calm     93% 0.00 in 0 W/m2
06:24 30.2 °F 28.4 °F 30.66 in Calm     93% 0.00 in 0 W/m2
06:29 30 °F 28.2 °F 30.66 in Calm     93% 0.00 in 0 W/m2
06:34 29.8 °F 28 °F 30.67 in Calm     93% 0.00 in 0 W/m2
06:39 30 °F 28.2 °F 30.67 in Calm     93% 0.00 in 0 W/m2
06:44 30.4 °F 28.6 °F 30.66 in Calm     93% 0.00 in 0 W/m2
06:49 30.5 °F 28.7 °F 30.66 in Calm     93% 0.00 in 0 W/m2
06:54 30.6 °F 28.8 °F 30.66 in Calm     93% 0.00 in 0 W/m2
06:59 30.2 °F 28.4 °F 30.67 in Calm     93% 0.00 in 0 W/m2
07:04 30.1 °F 28.3 °F 30.68 in Calm     93% 0.00 in 0 W/m2
07:09 29.8 °F 28 °F 30.68 in Calm     93% 0.00 in 0 W/m2
07:14 30 °F 28.2 °F 30.68 in Calm     93% 0.00 in 0 W/m2
07:19 30.4 °F 28.6 °F 30.67 in Calm     93% 0.00 in 0 W/m2
07:24 30.6 °F 28.8 °F 30.68 in Calm     93.2% 0.00 in 0 W/m2
07:29 30.4 °F 28.7 °F 30.68 in Calm     93.2% 0.00 in 0 W/m2
07:34 30.2 °F 28.6 °F 30.68 in Calm     93.4% 0.00 in 0 W/m2
07:39 30.3 °F 28.8 °F 30.68 in Calm     94% 0.00 in 0 W/m2
07:44 30.2 °F 28.8 °F 30.68 in Calm     94% 0.00 in 0 W/m2
07:49 30 °F 28.4 °F 30.68 in Calm     93.4% 0.00 in 0 W/m2
07:54 30 °F 28.4 °F 30.68 in Calm     93.4% 0.00 in 0 W/m2
07:58 30.2 °F 28.8 °F 30.68 in Calm     94% 0.00 in 0 W/m2
08:04 30.2 °F 28.8 °F 30.68 in NNE 0.2 mph 2 mph 94% 0.00 in 0 W/m2
08:09 30.3 °F 28.8 °F 30.68 in Calm   2 mph 94% 0.00 in 5 W/m2
08:13 30.4 °F 28.9 °F 30.68 in Calm     94% 0.00 in 7 W/m2
08:19 30.4 °F 28.9 °F 30.68 in Calm     94% 0.00 in 9 W/m2
08:24 30.6 °F 29.1 °F 30.68 in Calm   2 mph 94% 0.00 in 11 W/m2
08:29 30.5 °F 29 °F 30.68 in Calm     94% 0.00 in 12 W/m2
08:34 30.6 °F 29.1 °F 30.69 in Calm     94% 0.00 in 14 W/m2
08:39 30.5 °F 29 °F 30.69 in Calm     94% 0.00 in 16 W/m2
08:44 30.1 °F 28.7 °F 30.69 in Calm     94% 0.00 in 18 W/m2
08:49 30.4 °F 29 °F 30.69 in Calm   1 mph 94% 0.00 in 19 W/m2
08:54 30.9 °F 29.5 °F 30.70 in Calm   1 mph 94% 0.00 in 21 W/m2
08:59 30.9 °F 29.5 °F 30.70 in Calm     94% 0.00 in 21 W/m2
09:04 31.1 °F 29.7 °F 30.70 in Calm     94% 0.00 in 23 W/m2
09:09 31.7 °F 30.3 °F 30.70 in Calm     94% 0.00 in 25 W/m2
09:14 31.5 °F 30 °F 30.71 in NNE 0.2 mph 2 mph 94% 0.00 in 26 W/m2
09:19 31.7 °F 30.2 °F 30.71 in Calm   2 mph 94% 0.00 in 26 W/m2
09:24 32.2 °F 30.6 °F 30.71 in Calm     94% 0.00 in 26 W/m2
09:29 32.1 °F 30.6 °F 30.71 in NNE 0.8 mph 2 mph 94% 0.00 in 30 W/m2
09:34 32.6 °F 31 °F 30.71 in NNE 0.8 mph 2 mph 94% 0.00 in 32 W/m2
09:39 33.3 °F 31.7 °F 30.71 in NNE 0.2 mph 2 mph 94% 0.00 in 37 W/m2
09:44 33.4 °F 31.8 °F 30.71 in NNE 0.6 mph 2 mph 94% 0.00 in 42 W/m2
09:49 33.5 °F 31.9 °F 30.71 in Calm   1 mph 94% 0.00 in 49 W/m2
09:54 34.4 °F 32.8 °F 30.72 in Calm   1 mph 94% 0.00 in 58 W/m2
09:59 35.5 °F 33.9 °F 30.72 in Calm     94% 0.00 in 67 W/m2
10:04 35.2 °F 33.5 °F 30.71 in NNE 0.2 mph 2 mph 93.8% 0.00 in 76 W/m2
10:09 36.1 °F 34.4 °F 30.72 in Calm   1 mph 93.2% 0.00 in 84 W/m2
10:13 37.7 °F 36 °F 30.72 in Calm     93.3% 0.00 in 91 W/m2
10:19 37.7 °F 35.6 °F 30.72 in Calm     92.2% 0.00 in 100 W/m2
10:24 37.6 °F 35.2 °F 30.73 in Calm     91% 0.00 in 109 W/m2
10:29 38 °F 35.4 °F 30.73 in NNE 0.4 mph 2 mph 90.4% 0.00 in 120 W/m2
10:34 37.7 °F 34.8 °F 30.73 in NNE 0.2 mph 2 mph 89% 0.00 in 128 W/m2
10:39 38.5 °F 35.6 °F 30.73 in Calm   2 mph 89% 0.00 in 137 W/m2
10:44 38.8 °F 35.5 °F 30.74 in Calm     87.8% 0.00 in 146 W/m2
10:49 39 °F 35.5 °F 30.73 in Calm     87.2% 0.00 in 153 W/m2
10:54 40.4 °F 36.9 °F 30.73 in Calm     87.2% 0.00 in 162 W/m2
10:59 40.1 °F 36.1 °F 30.73 in NNE 1 mph 3 mph 85.2% 0.00 in 169 W/m2
11:04 39.5 °F 35.3 °F 30.73 in NNE 1.5 mph 3 mph 85% 0.00 in 178 W/m2
11:09 38.6 °F 34.5 °F 30.73 in NNE 0.6 mph 3 mph 85.2% 0.00 in 185 W/m2
11:14 38.9 °F 35.2 °F 30.73 in Calm   2 mph 86% 0.00 in 190 W/m2
11:19 40.6 °F 36.9 °F 30.73 in Calm     86.8% 0.00 in 195 W/m2
11:24 40.6 °F 36.3 °F 30.73 in NNE 0.4 mph 2 mph 84.4% 0.00 in 202 W/m2
11:29 40.8 °F 36.5 °F 30.73 in NNE 0.2 mph 3 mph 84.4% 0.00 in 207 W/m2
11:34 41.4 °F 37 °F 30.72 in NNE 1 mph 4 mph 84% 0.00 in 213 W/m2
11:39 40.5 °F 36 °F 30.72 in NNE 0.2 mph 4 mph 83.8% 0.00 in 216 W/m2
11:44 40.8 °F 36.6 °F 30.72 in Calm   3 mph 84.8% 0.00 in 220 W/m2
11:49 41.4 °F 37 °F 30.72 in NNE 1.4 mph 3 mph 84.2% 0.00 in 223 W/m2
11:54 41.5 °F 37 °F 30.72 in NNE 0.8 mph 4 mph 84% 0.00 in 229 W/m2
11:59 41.7 °F 37.1 °F 30.72 in NNE 2.3 mph 4 mph 83.8% 0.00 in 230 W/m2
12:04 41.9 °F 37.3 °F 30.72 in NNE 1.6 mph 4 mph 83.8% 0.00 in 234 W/m2
12:09 42.2 °F 37.3 °F 30.72 in NNE 2 mph 5 mph 83% 0.00 in 236 W/m2
12:14 42 °F 37.1 °F 30.72 in NNE 3.6 mph 5 mph 83% 0.00 in 239 W/m2
12:19 42.2 °F 37.3 °F 30.72 in NNE 2.8 mph 6 mph 83% 0.00 in 241 W/m2
12:24 42.5 °F 37.7 °F 30.72 in NNE 2.9 mph 6 mph 83% 0.00 in 241 W/m2
12:29 42.7 °F 37.8 °F 30.72 in NNE 3 mph 6 mph 82.6% 0.00 in 243 W/m2
12:34 43.2 °F 38.1 °F 30.71 in NNE 2.6 mph 6 mph 82% 0.00 in 244 W/m2
12:39 43.6 °F 38.3 °F 30.71 in NNE 2.2 mph 5 mph 81.4% 0.00 in 243 W/m2
12:44 43.9 °F 38.5 °F 30.70 in NNE 2.8 mph 5 mph 81.2% 0.00 in 243 W/m2
12:49 43.7 °F 38.3 °F 30.71 in NNE 2.5 mph 5 mph 81.2% 0.00 in 243 W/m2
12:54 44.1 °F 38.7 °F 30.72 in NNE 2.8 mph 6 mph 81.6% 0.00 in 241 W/m2
12:59 44.1 °F 38.7 °F 30.71 in North 3.7 mph 6 mph 81% 0.00 in 241 W/m2
13:04 44.1 °F 38.7 °F 30.72 in NNW 3.1 mph 5 mph 81.2% 0.00 in 237 W/m2
13:09 44.2 °F 38.9 °F 30.71 in NNW 2.8 mph 5 mph 81.4% 0.00 in 236 W/m2
13:13 44.8 °F 39.5 °F 30.70 in NNW 0.7 mph 3 mph 81.8% 0.00 in 232 W/m2
13:19 45.5 °F 40 °F 30.70 in NNW 0.8 mph 4 mph 81% 0.00 in 230 W/m2
13:24 46.1 °F 40.3 °F 30.70 in NNW 1.1 mph 4 mph 79.8% 0.00 in 227 W/m2
13:29 46 °F 40.2 °F 30.70 in NNW 1.1 mph 4 mph 79.8% 0.00 in 225 W/m2
13:34 46.1 °F 40.3 °F 30.70 in NNW 0.4 mph 3 mph 80% 0.00 in 220 W/m2
13:39 46.6 °F 40.6 °F 30.69 in NNW 1 mph 4 mph 79.4% 0.00 in 216 W/m2
13:44 46.3 °F 40.4 °F 30.69 in NNW 2 mph 4 mph 79.4% 0.00 in 213 W/m2
13:49 46.1 °F 40.4 °F 30.69 in NNW 1.6 mph 5 mph 80% 0.00 in 206 W/m2
13:54 45.9 °F 40.2 °F 30.71 in NNW 1.8 mph 5 mph 80% 0.00 in 202 W/m2
13:59 45.8 °F 40.1 °F 30.71 in NNW 2.8 mph 5 mph 80.6% 0.00 in 197 W/m2
14:04 45.9 °F 40.4 °F 30.70 in NNW 3.2 mph 5 mph 81% 0.00 in 192 W/m2
14:09 46.2 °F 40.6 °F 30.68 in NNW 2.2 mph 4 mph 80.6% 0.00 in 186 W/m2
14:14 46.1 °F 40.4 °F 30.68 in NNW 4.3 mph 7 mph 80% 0.00 in 179 W/m2
14:19 46 °F 40.3 °F 30.68 in NNW 4.5 mph 7 mph 80.6% 0.00 in 174 W/m2
14:24 46 °F 40.4 °F 30.68 in NNW 2.2 mph 7 mph 81% 0.00 in 165 W/m2
14:29 46 °F 40.4 °F 30.68 in NNW 3.9 mph 6 mph 80.8% 0.00 in 158 W/m2
14:34 45.8 °F 40.2 °F 30.68 in NNW 4 mph 6 mph 81% 0.00 in 151 W/m2
14:39 45.5 °F 40.1 °F 30.68 in NNW 3.5 mph 6 mph 81.2% 0.00 in 144 W/m2
14:44 45.5 °F 40.3 °F 30.68 in NNW 3.3 mph 5 mph 81.8% 0.00 in 137 W/m2
14:49 45.6 °F 40.4 °F 30.68 in NNW 0.9 mph 5 mph 82% 0.00 in 130 W/m2
14:54 46 °F 40.7 °F 30.68 in NNW 2 mph 3 mph 81.8% 0.00 in 120 W/m2
14:59 46.2 °F 40.7 °F 30.69 in NNW 1.4 mph 3 mph 81% 0.00 in 113 W/m2
15:04 46.7 °F 41.1 °F 30.69 in NNW 2.9 mph 5 mph 80.8% 0.00 in 104 W/m2
15:09 46.5 °F 40.7 °F 30.69 in NNW 3.3 mph 5 mph 80% 0.00 in 95 W/m2
15:14 46.2 °F 40.5 °F 30.69 in NNW 2.5 mph 5 mph 80.4% 0.00 in 86 W/m2
15:19 46.4 °F 40.8 °F 30.69 in NNW 2.2 mph 4 mph 81% 0.00 in 77 W/m2
15:24 46.2 °F 40.6 °F 30.69 in NNW 2 mph 4 mph 81% 0.00 in 69 W/m2
15:29 46 °F 40.5 °F 30.69 in NNW 1.9 mph 4 mph 80.8% 0.00 in 62 W/m2
15:34 46 °F 40.5 °F 30.69 in NNW 2.5 mph 5 mph 81% 0.00 in 51 W/m2
15:39 45.9 °F 40.3 °F 30.69 in NNW 2.3 mph 5 mph 81% 0.00 in 42 W/m2
15:44 45.8 °F 40.2 °F 30.70 in NNW 1.7 mph 4 mph 81% 0.00 in 37 W/m2
15:49 45.8 °F 40.2 °F 30.70 in NNW 1.1 mph 3 mph 81% 0.00 in 28 W/m2
15:54 45.9 °F 40.5 °F 30.70 in NNW 0.9 mph 2 mph 81.6% 0.00 in 25 W/m2
15:59 45.7 °F 40.1 °F 30.70 in NNW 0.7 mph 2 mph 81% 0.00 in 21 W/m2
16:04 45.7 °F 40.3 °F 30.69 in Calm   1 mph 81.6% 0.00 in 18 W/m2
16:09 45.7 °F 40.5 °F 30.69 in Calm   2 mph 82% 0.00 in 16 W/m2
16:14 45.9 °F 40.6 °F 30.69 in Calm     82% 0.00 in 14 W/m2
16:19 46 °F 40.7 °F 30.69 in Calm     82% 0.00 in 12 W/m2
16:24 45.9 °F 40.5 °F 30.69 in Calm     81.8% 0.00 in 11 W/m2
16:29 45 °F 39.6 °F 30.69 in NNW 0.5 mph 2 mph 81% 0.00 in 7 W/m2
16:34 44.3 °F 39.1 °F 30.70 in Calm   2 mph 82% 0.00 in 5 W/m2
16:39 44.2 °F 39.2 °F 30.70 in Calm     82.6% 0.00 in 5 W/m2
16:44 44 °F 39.1 °F 30.70 in Calm     83% 0.00 in 0 W/m2
16:49 43.9 °F 39 °F 30.70 in Calm     83% 0.00 in 0 W/m2
16:54 43.5 °F 38.7 °F 30.71 in Calm     83% 0.00 in 0 W/m2
16:59 43 °F 38.2 °F 30.71 in Calm     83.2% 0.00 in 0 W/m2
17:04 42.2 °F 37.6 °F 30.71 in Calm     83.8% 0.00 in 0 W/m2
17:09 41.5 °F 37 °F 30.70 in NNW 0.4 mph 2 mph 84% 0.00 in 0 W/m2
17:14 40.9 °F 36.7 °F 30.71 in Calm   1 mph 84.8% 0.00 in 0 W/m2
17:19 40.4 °F 36.2 °F 30.70 in Calm     85% 0.00 in 0 W/m2
17:24 40.1 °F 36.3 °F 30.70 in Calm     86% 0.00 in 0 W/m2
17:29 39.8 °F 36.1 °F 30.70 in Calm     86% 0.00 in 0 W/m2
17:34 39.6 °F 35.8 °F 30.70 in Calm     86% 0.00 in 0 W/m2
17:39 39.2 °F 35.5 °F 30.70 in Calm     86.4% 0.00 in 0 W/m2
17:44 38.8 °F 35.2 °F 30.70 in Calm     87% 0.00 in 0 W/m2
17:49 38.5 °F 34.9 °F 30.70 in Calm     87% 0.00 in 0 W/m2
17:54 38.1 °F 34.5 °F 30.71 in Calm     87% 0.00 in 0 W/m2
17:59 38.1 °F 34.9 °F 30.71 in Calm     88% 0.00 in 0 W/m2
18:04 38 °F 34.8 °F 30.71 in Calm     88% 0.00 in 0 W/m2
18:09 37.8 °F 34.6 °F 30.71 in Calm     88% 0.00 in 0 W/m2
18:14 37.6 °F 34.3 °F 30.71 in Calm     88% 0.00 in 0 W/m2
18:19 37.2 °F 34 °F 30.71 in Calm     88% 0.00 in 0 W/m2
18:24 37.2 °F 34.2 °F 30.70 in Calm     88.8% 0.00 in 0 W/m2
18:29 37.2 °F 34.3 °F 30.70 in Calm     89% 0.00 in 0 W/m2
18:34 36.9 °F 34 °F 30.70 in Calm     89% 0.00 in 0 W/m2
18:39 36.5 °F 33.6 °F 30.70 in Calm     89% 0.00 in 0 W/m2
18:44 36.3 °F 33.4 °F 30.70 in Calm     89% 0.00 in 0 W/m2
18:49 36.1 °F 33.3 °F 30.70 in Calm     89% 0.00 in 0 W/m2
18:54 36 °F 33.2 °F 30.71 in Calm     89.2% 0.00 in 0 W/m2
18:59 36 °F 33.1 °F 30.71 in Calm     89.2% 0.00 in 0 W/m2
19:04 36 °F 33.3 °F 30.70 in Calm     90% 0.00 in 0 W/m2
19:09 36 °F 33.3 °F 30.71 in Calm     90% 0.00 in 0 W/m2
19:14 36 °F 33.3 °F 30.71 in Calm     90% 0.00 in 0 W/m2
19:19 36 °F 33.3 °F 30.71 in Calm     90% 0.00 in 0 W/m2
19:24 35.6 °F 32.9 °F 30.71 in Calm     90% 0.00 in 0 W/m2
19:29 35.2 °F 32.5 °F 30.71 in Calm     90% 0.00 in 0 W/m2
19:34 35.1 °F 32.4 °F 30.71 in Calm     90% 0.00 in 0 W/m2
19:39 35.1 °F 32.4 °F 30.71 in Calm     90% 0.00 in 0 W/m2
19:44 35.3 °F 33 °F 30.71 in Calm     90.8% 0.00 in 0 W/m2
19:49 36.2 °F 33.8 °F 30.71 in Calm     91% 0.00 in 0 W/m2
19:54 36.1 °F 33.8 °F 30.71 in Calm     91% 0.00 in 0 W/m2
19:59 36.1 °F 33.7 °F 30.71 in Calm     91% 0.00 in 0 W/m2
20:04 36.3 °F 34 °F 30.71 in Calm   1 mph 91% 0.00 in 0 W/m2
20:09 36.2 °F 33.9 °F 30.72 in Calm     91% 0.00 in 0 W/m2
20:14 35.6 °F 33.2 °F 30.72 in Calm     90.8% 0.00 in 0 W/m2
20:19 34.8 °F 32.3 °F 30.72 in Calm     90.4% 0.00 in 0 W/m2
20:24 34.1 °F 31.5 °F 30.72 in Calm     90.2% 0.00 in 0 W/m2
20:29 33.9 °F 31.6 °F 30.72 in Calm     91% 0.00 in 0 W/m2
20:34 33.8 °F 31.5 °F 30.72 in Calm     91% 0.00 in 0 W/m2
20:39 33.8 °F 31.5 °F 30.72 in Calm     91% 0.00 in 0 W/m2
20:44 33.6 °F 31.3 °F 30.72 in Calm     91% 0.00 in 0 W/m2
20:49 33.6 °F 31.3 °F 30.72 in Calm     91% 0.00 in 0 W/m2
20:54 33.4 °F 31.1 °F 30.72 in Calm     91% 0.00 in 0 W/m2
20:59 33.4 °F 31.1 °F 30.72 in Calm     91% 0.00 in 0 W/m2
21:04 33.4 °F 31.1 °F 30.72 in Calm     91% 0.00 in 0 W/m2
21:09 33.3 °F 30.9 °F 30.72 in Calm     91% 0.00 in 0 W/m2
21:14 33.3 °F 30.9 °F 30.72 in Calm     91% 0.00 in 0 W/m2
21:19 33.1 °F 30.7 °F 30.72 in Calm     91% 0.00 in 0 W/m2
21:24 33.1 °F 30.7 °F 30.72 in Calm     91% 0.00 in 0 W/m2
21:29 32.8 °F 30.5 °F 30.72 in Calm     91% 0.00 in 0 W/m2
21:34 32.7 °F 30.4 °F 30.72 in Calm     91% 0.00 in 0 W/m2
21:39 32.7 °F 30.4 °F 30.71 in Calm     91% 0.00 in 0 W/m2
21:44 32.6 °F 30.3 °F 30.71 in Calm     91% 0.00 in 0 W/m2
21:49 32.4 °F 30.1 °F 30.71 in Calm     91% 0.00 in 0 W/m2
21:54 32.3 °F 30 °F 30.71 in Calm     91.2% 0.00 in 0 W/m2
21:58 32 °F 29.7 °F 30.71 in Calm     91% 0.00 in 0 W/m2
22:04 32 °F 29.8 °F 30.71 in Calm     91.2% 0.00 in 0 W/m2
22:09 32.1 °F 30 °F 30.71 in Calm     91.8% 0.00 in 0 W/m2
22:14 32 °F 30 °F 30.71 in Calm   1 mph 92% 0.00 in 0 W/m2
22:19 32 °F 30 °F 30.71 in Calm   1 mph 92% 0.00 in 0 W/m2
22:24 31.9 °F 29.9 °F 30.71 in Calm     92% 0.00 in 0 W/m2
22:29 31.8 °F 29.8 °F 30.71 in Calm     92% 0.00 in 0 W/m2
22:34 31.8 °F 29.8 °F 30.71 in Calm   1 mph 92% 0.00 in 0 W/m2
22:39 31.7 °F 29.8 °F 30.71 in Calm     92% 0.00 in 0 W/m2
22:43 31.6 °F 29.6 °F 30.71 in Calm     92% 0.00 in 0 W/m2
22:49 31.4 °F 29.4 °F 30.71 in Calm     92% 0.00 in 0 W/m2
22:54 31.3 °F 29.3 °F 30.71 in Calm     92% 0.00 in 0 W/m2
22:59 31.3 °F 29.3 °F 30.70 in Calm     92% 0.00 in 0 W/m2
23:04 31.3 °F 29.3 °F 30.71 in Calm     92% 0.00 in 0 W/m2
23:09 31.3 °F 29.3 °F 30.71 in Calm     92% 0.00 in 0 W/m2
23:14 31.1 °F 29.1 °F 30.71 in Calm     92% 0.00 in 0 W/m2
23:19 30.9 °F 28.9 °F 30.70 in Calm     92% 0.00 in 0 W/m2
23:24 30.9 °F 28.9 °F 30.70 in Calm     92% 0.00 in 0 W/m2
23:29 30.8 °F 28.8 °F 30.71 in Calm     92% 0.00 in 0 W/m2
23:34 30.9 °F 28.9 °F 30.70 in Calm   1 mph 92% 0.00 in 0 W/m2
23:39 30.9 °F 28.9 °F 30.70 in Calm     92% 0.00 in 0 W/m2
23:44 30.7 °F 28.8 °F 30.70 in Calm     92% 0.00 in 0 W/m2
23:49 30.7 °F 28.8 °F 30.70 in Calm   1 mph 92% 0.00 in 0 W/m2
23:54 30.7 °F 28.8 °F 30.70 in Calm   1 mph 92% 0.00 in 0 W/m2
23:59 30.6 °F 28.7 °F 30.70 in Calm     92% 0.00 in 0 W/m2
Bath Spa Weather
Compliments of Weather Underground - 2 mb